sensor_id;sensor_type;location;lat;lon;timestamp;P1;durP1;ratioP1;P2;durP2;ratioP2
13102;SDS011;52970;46.752;17.108;2022-10-17T00:01:19;22.48;;;18.52;;
13102;SDS011;52970;46.752;17.108;2022-10-17T00:03:44;22.98;;;17.80;;
13102;SDS011;52970;46.752;17.108;2022-10-17T00:06:11;24.25;;;18.52;;
13102;SDS011;52970;46.752;17.108;2022-10-17T00:08:37;21.10;;;18.33;;
13102;SDS011;52970;46.752;17.108;2022-10-17T00:11:07;23.13;;;18.73;;
13102;SDS011;52970;46.752;17.108;2022-10-17T00:13:33;20.00;;;17.02;;
13102;SDS011;52970;46.752;17.108;2022-10-17T00:15:59;20.83;;;16.88;;
13102;SDS011;52970;46.752;17.108;2022-10-17T00:18:24;19.88;;;16.75;;
13102;SDS011;52970;46.752;17.108;2022-10-17T00:20:50;19.98;;;16.63;;
13102;SDS011;52970;46.752;17.108;2022-10-17T00:23:15;20.73;;;17.80;;
13102;SDS011;52970;46.752;17.108;2022-10-17T00:25:40;20.88;;;17.10;;
13102;SDS011;52970;46.752;17.108;2022-10-17T00:28:12;17.98;;;15.48;;
13102;SDS011;52970;46.752;17.108;2022-10-17T00:30:38;14.75;;;13.05;;
13102;SDS011;52970;46.752;17.108;2022-10-17T00:33:03;14.10;;;12.57;;
13102;SDS011;52970;46.752;17.108;2022-10-17T00:35:29;14.60;;;13.10;;
13102;SDS011;52970;46.752;17.108;2022-10-17T00:37:54;13.23;;;11.88;;
13102;SDS011;52970;46.752;17.108;2022-10-17T00:40:19;14.40;;;12.90;;
13102;SDS011;52970;46.752;17.108;2022-10-17T00:42:44;14.00;;;12.63;;
13102;SDS011;52970;46.752;17.108;2022-10-17T00:45:43;13.70;;;12.30;;
13102;SDS011;52970;46.752;17.108;2022-10-17T00:48:04;16.00;;;13.65;;
13102;SDS011;52970;46.752;17.108;2022-10-17T00:50:32;16.50;;;13.85;;
13102;SDS011;52970;46.752;17.108;2022-10-17T00:52:59;16.42;;;14.27;;
13102;SDS011;52970;46.752;17.108;2022-10-17T00:55:36;15.68;;;14.07;;
13102;SDS011;52970;46.752;17.108;2022-10-17T00:58:03;16.27;;;14.48;;
13102;SDS011;52970;46.752;17.108;2022-10-17T01:00:29;17.58;;;14.70;;
13102;SDS011;52970;46.752;17.108;2022-10-17T01:02:54;17.88;;;13.82;;
13102;SDS011;52970;46.752;17.108;2022-10-17T01:05:19;18.08;;;13.88;;
13102;SDS011;52970;46.752;17.108;2022-10-17T01:07:45;14.20;;;12.80;;
13102;SDS011;52970;46.752;17.108;2022-10-17T01:10:11;15.27;;;13.68;;
13102;SDS011;52970;46.752;17.108;2022-10-17T01:15:11;15.77;;;14.18;;
13102;SDS011;52970;46.752;17.108;2022-10-17T01:20:27;16.27;;;13.77;;
13102;SDS011;52970;46.752;17.108;2022-10-17T01:33:08;20.85;;;15.88;;
13102;SDS011;52970;46.752;17.108;2022-10-17T01:38:10;16.53;;;14.83;;
13102;SDS011;52970;46.752;17.108;2022-10-17T01:46:13;16.27;;;14.68;;
13102;SDS011;52970;46.752;17.108;2022-10-17T01:48:41;17.88;;;14.52;;
13102;SDS011;52970;46.752;17.108;2022-10-17T01:51:16;16.27;;;14.52;;
13102;SDS011;52970;46.752;17.108;2022-10-17T01:53:45;16.77;;;14.98;;
13102;SDS011;52970;46.752;17.108;2022-10-17T01:56:13;17.33;;;14.68;;
13102;SDS011;52970;46.752;17.108;2022-10-17T01:58:42;18.20;;;14.95;;
13102;SDS011;52970;46.752;17.108;2022-10-17T02:01:08;20.70;;;15.95;;
13102;SDS011;52970;46.752;17.108;2022-10-17T02:03:35;22.75;;;16.58;;
13102;SDS011;52970;46.752;17.108;2022-10-17T02:06:02;21.38;;;16.65;;
13102;SDS011;52970;46.752;17.108;2022-10-17T02:08:28;21.17;;;16.23;;
13102;SDS011;52970;46.752;17.108;2022-10-17T02:10:55;18.50;;;16.50;;
13102;SDS011;52970;46.752;17.108;2022-10-17T02:16:08;21.58;;;17.48;;
13102;SDS011;52970;46.752;17.108;2022-10-17T02:21:12;19.70;;;16.70;;
13102;SDS011;52970;46.752;17.108;2022-10-17T02:23:51;18.05;;;16.05;;
13102;SDS011;52970;46.752;17.108;2022-10-17T02:26:36;18.73;;;16.08;;
13102;SDS011;52970;46.752;17.108;2022-10-17T02:29:27;18.50;;;15.77;;
13102;SDS011;52970;46.752;17.108;2022-10-17T02:31:57;18.23;;;16.27;;
13102;SDS011;52970;46.752;17.108;2022-10-17T02:34:28;17.55;;;15.13;;
13102;SDS011;52970;46.752;17.108;2022-10-17T02:36:57;19.65;;;15.32;;
13102;SDS011;52970;46.752;17.108;2022-10-17T02:39:23;19.42;;;14.55;;
13102;SDS011;52970;46.752;17.108;2022-10-17T02:41:49;17.50;;;15.07;;
13102;SDS011;52970;46.752;17.108;2022-10-17T02:44:15;19.15;;;16.35;;
13102;SDS011;52970;46.752;17.108;2022-10-17T02:46:40;17.08;;;14.77;;
13102;SDS011;52970;46.752;17.108;2022-10-17T02:49:25;18.23;;;14.73;;
13102;SDS011;52970;46.752;17.108;2022-10-17T02:54:27;15.20;;;13.60;;
13102;SDS011;52970;46.752;17.108;2022-10-17T02:59:40;17.30;;;14.18;;
13102;SDS011;52970;46.752;17.108;2022-10-17T03:02:06;18.13;;;14.45;;
13102;SDS011;52970;46.752;17.108;2022-10-17T03:04:31;16.75;;;14.65;;
13102;SDS011;52970;46.752;17.108;2022-10-17T03:06:57;17.75;;;14.20;;
13102;SDS011;52970;46.752;17.108;2022-10-17T03:09:22;15.60;;;13.82;;
13102;SDS011;52970;46.752;17.108;2022-10-17T03:11:47;15.30;;;13.70;;
13102;SDS011;52970;46.752;17.108;2022-10-17T03:14:13;15.75;;;14.07;;
13102;SDS011;52970;46.752;17.108;2022-10-17T03:16:38;16.35;;;14.57;;
13102;SDS011;52970;46.752;17.108;2022-10-17T03:19:03;17.33;;;13.95;;
13102;SDS011;52970;46.752;17.108;2022-10-17T03:21:29;15.35;;;13.75;;
13102;SDS011;52970;46.752;17.108;2022-10-17T03:23:54;14.95;;;13.20;;
13102;SDS011;52970;46.752;17.108;2022-10-17T03:26:19;15.98;;;13.68;;
13102;SDS011;52970;46.752;17.108;2022-10-17T03:28:45;17.48;;;14.93;;
13102;SDS011;52970;46.752;17.108;2022-10-17T03:31:12;15.40;;;13.10;;
13102;SDS011;52970;46.752;17.108;2022-10-17T03:33:38;16.75;;;13.90;;
13102;SDS011;52970;46.752;17.108;2022-10-17T03:36:05;14.98;;;13.45;;
13102;SDS011;52970;46.752;17.108;2022-10-17T03:38:30;13.85;;;12.40;;
13102;SDS011;52970;46.752;17.108;2022-10-17T03:40:55;14.40;;;12.35;;
13102;SDS011;52970;46.752;17.108;2022-10-17T03:43:20;13.80;;;12.40;;
13102;SDS011;52970;46.752;17.108;2022-10-17T03:45:46;13.45;;;11.70;;
13102;SDS011;52970;46.752;17.108;2022-10-17T03:48:11;13.38;;;11.75;;
13102;SDS011;52970;46.752;17.108;2022-10-17T03:50:36;13.32;;;11.98;;
13102;SDS011;52970;46.752;17.108;2022-10-17T03:53:01;14.13;;;12.73;;
13102;SDS011;52970;46.752;17.108;2022-10-17T03:55:27;14.60;;;13.02;;
13102;SDS011;52970;46.752;17.108;2022-10-17T03:57:52;16.85;;;14.07;;
13102;SDS011;52970;46.752;17.108;2022-10-17T04:00:17;13.98;;;12.48;;
13102;SDS011;52970;46.752;17.108;2022-10-17T04:02:42;14.00;;;12.40;;
13102;SDS011;52970;46.752;17.108;2022-10-17T04:05:08;14.15;;;12.55;;
13102;SDS011;52970;46.752;17.108;2022-10-17T04:07:34;15.40;;;12.07;;
13102;SDS011;52970;46.752;17.108;2022-10-17T04:10:01;13.55;;;12.05;;
13102;SDS011;52970;46.752;17.108;2022-10-17T04:12:26;14.43;;;12.23;;
13102;SDS011;52970;46.752;17.108;2022-10-17T04:14:51;13.70;;;12.27;;
13102;SDS011;52970;46.752;17.108;2022-10-17T04:17:16;13.20;;;11.68;;
13102;SDS011;52970;46.752;17.108;2022-10-17T04:19:42;15.20;;;11.68;;
13102;SDS011;52970;46.752;17.108;2022-10-17T04:22:07;10.75;;;9.68;;
13102;SDS011;52970;46.752;17.108;2022-10-17T04:24:32;11.68;;;10.55;;
13102;SDS011;52970;46.752;17.108;2022-10-17T04:26:57;11.80;;;10.60;;
13102;SDS011;52970;46.752;17.108;2022-10-17T04:29:23;12.32;;;11.10;;
13102;SDS011;52970;46.752;17.108;2022-10-17T04:31:49;10.93;;;9.82;;
13102;SDS011;52970;46.752;17.108;2022-10-17T04:34:16;12.57;;;11.35;;
13102;SDS011;52970;46.752;17.108;2022-10-17T04:36:41;12.00;;;10.32;;
13102;SDS011;52970;46.752;17.108;2022-10-17T04:39:06;13.07;;;11.63;;
13102;SDS011;52970;46.752;17.108;2022-10-17T04:41:32;14.30;;;12.07;;
13102;SDS011;52970;46.752;17.108;2022-10-17T04:43:58;14.88;;;12.60;;
13102;SDS011;52970;46.752;17.108;2022-10-17T04:46:23;13.63;;;11.93;;
13102;SDS011;52970;46.752;17.108;2022-10-17T04:48:48;16.40;;;12.13;;
13102;SDS011;52970;46.752;17.108;2022-10-17T04:51:14;15.38;;;13.20;;
13102;SDS011;52970;46.752;17.108;2022-10-17T04:53:40;16.10;;;13.45;;
13102;SDS011;52970;46.752;17.108;2022-10-17T04:56:16;18.75;;;14.50;;
13102;SDS011;52970;46.752;17.108;2022-10-17T04:58:41;20.17;;;14.55;;
13102;SDS011;52970;46.752;17.108;2022-10-17T05:01:07;29.20;;;17.55;;
13102;SDS011;52970;46.752;17.108;2022-10-17T05:03:33;21.77;;;16.23;;
13102;SDS011;52970;46.752;17.108;2022-10-17T05:06:01;22.15;;;16.40;;
13102;SDS011;52970;46.752;17.108;2022-10-17T05:08:27;26.08;;;18.02;;
13102;SDS011;52970;46.752;17.108;2022-10-17T05:10:52;20.02;;;16.35;;
13102;SDS011;52970;46.752;17.108;2022-10-17T05:13:17;24.00;;;17.05;;
13102;SDS011;52970;46.752;17.108;2022-10-17T05:15:42;22.58;;;17.13;;
13102;SDS011;52970;46.752;17.108;2022-10-17T05:18:08;22.73;;;17.00;;
13102;SDS011;52970;46.752;17.108;2022-10-17T05:20:33;23.58;;;16.25;;
13102;SDS011;52970;46.752;17.108;2022-10-17T05:22:58;22.42;;;16.65;;
13102;SDS011;52970;46.752;17.108;2022-10-17T05:25:24;24.42;;;16.90;;
13102;SDS011;52970;46.752;17.108;2022-10-17T05:27:49;23.33;;;16.33;;
13102;SDS011;52970;46.752;17.108;2022-10-17T05:30:14;19.10;;;14.73;;
13102;SDS011;52970;46.752;17.108;2022-10-17T05:32:40;21.88;;;16.02;;
13102;SDS011;52970;46.752;17.108;2022-10-17T05:35:05;19.65;;;14.45;;
13102;SDS011;52970;46.752;17.108;2022-10-17T05:37:30;20.13;;;15.63;;
13102;SDS011;52970;46.752;17.108;2022-10-17T05:39:56;19.90;;;15.20;;
13102;SDS011;52970;46.752;17.108;2022-10-17T05:42:22;21.33;;;15.85;;
13102;SDS011;52970;46.752;17.108;2022-10-17T05:44:47;19.42;;;15.00;;
13102;SDS011;52970;46.752;17.108;2022-10-17T05:47:12;19.35;;;14.90;;
13102;SDS011;52970;46.752;17.108;2022-10-17T05:49:38;19.48;;;15.32;;
13102;SDS011;52970;46.752;17.108;2022-10-17T05:52:03;20.10;;;14.82;;
13102;SDS011;52970;46.752;17.108;2022-10-17T05:54:28;19.88;;;15.07;;
13102;SDS011;52970;46.752;17.108;2022-10-17T05:56:54;21.05;;;15.73;;
13102;SDS011;52970;46.752;17.108;2022-10-17T05:59:19;22.50;;;15.73;;
13102;SDS011;52970;46.752;17.108;2022-10-17T06:01:45;25.60;;;16.80;;
13102;SDS011;52970;46.752;17.108;2022-10-17T06:04:10;33.00;;;18.65;;
13102;SDS011;52970;46.752;17.108;2022-10-17T06:06:36;27.27;;;16.92;;
13102;SDS011;52970;46.752;17.108;2022-10-17T06:09:01;23.90;;;16.38;;
13102;SDS011;52970;46.752;17.108;2022-10-17T06:11:26;21.90;;;16.48;;
13102;SDS011;52970;46.752;17.108;2022-10-17T06:13:51;23.65;;;18.17;;
13102;SDS011;52970;46.752;17.108;2022-10-17T06:16:17;23.73;;;16.50;;
13102;SDS011;52970;46.752;17.108;2022-10-17T06:18:42;22.50;;;15.30;;
13102;SDS011;52970;46.752;17.108;2022-10-17T06:21:08;25.10;;;17.20;;
13102;SDS011;52970;46.752;17.108;2022-10-17T06:23:34;24.02;;;17.50;;
13102;SDS011;52970;46.752;17.108;2022-10-17T06:25:59;35.63;;;21.55;;
13102;SDS011;52970;46.752;17.108;2022-10-17T06:28:25;37.25;;;21.00;;
13102;SDS011;52970;46.752;17.108;2022-10-17T06:30:50;33.60;;;21.13;;
13102;SDS011;52970;46.752;17.108;2022-10-17T06:33:16;33.80;;;21.67;;
13102;SDS011;52970;46.752;17.108;2022-10-17T06:35:42;36.90;;;24.55;;
13102;SDS011;52970;46.752;17.108;2022-10-17T06:38:07;39.10;;;28.65;;
13102;SDS011;52970;46.752;17.108;2022-10-17T06:40:32;36.08;;;26.60;;
13102;SDS011;52970;46.752;17.108;2022-10-17T06:42:57;38.38;;;28.35;;
13102;SDS011;52970;46.752;17.108;2022-10-17T06:45:23;33.00;;;23.17;;
13102;SDS011;52970;46.752;17.108;2022-10-17T06:47:48;33.58;;;23.08;;
13102;SDS011;52970;46.752;17.108;2022-10-17T06:50:14;25.92;;;21.45;;
13102;SDS011;52970;46.752;17.108;2022-10-17T06:52:39;22.25;;;18.10;;
13102;SDS011;52970;46.752;17.108;2022-10-17T06:55:04;25.05;;;18.48;;
13102;SDS011;52970;46.752;17.108;2022-10-17T06:57:29;23.35;;;18.05;;
13102;SDS011;52970;46.752;17.108;2022-10-17T06:59:55;19.77;;;16.45;;
13102;SDS011;52970;46.752;17.108;2022-10-17T07:02:21;22.63;;;17.02;;
13102;SDS011;52970;46.752;17.108;2022-10-17T07:04:48;21.63;;;15.77;;
13102;SDS011;52970;46.752;17.108;2022-10-17T07:07:13;17.50;;;15.70;;
13102;SDS011;52970;46.752;17.108;2022-10-17T07:09:38;18.40;;;15.60;;
13102;SDS011;52970;46.752;17.108;2022-10-17T07:12:04;18.17;;;15.30;;
13102;SDS011;52970;46.752;17.108;2022-10-17T07:14:32;17.80;;;15.27;;
13102;SDS011;52970;46.752;17.108;2022-10-17T07:16:57;17.35;;;14.80;;
13102;SDS011;52970;46.752;17.108;2022-10-17T07:19:23;22.08;;;15.40;;
13102;SDS011;52970;46.752;17.108;2022-10-17T07:21:48;18.40;;;15.05;;
13102;SDS011;52970;46.752;17.108;2022-10-17T07:24:14;17.67;;;14.73;;
13102;SDS011;52970;46.752;17.108;2022-10-17T07:26:39;17.33;;;14.65;;
13102;SDS011;52970;46.752;17.108;2022-10-17T07:29:04;19.13;;;14.13;;
13102;SDS011;52970;46.752;17.108;2022-10-17T07:31:31;15.82;;;13.88;;
13102;SDS011;52970;46.752;17.108;2022-10-17T07:33:57;19.23;;;14.35;;
13102;SDS011;52970;46.752;17.108;2022-10-17T07:36:23;16.20;;;13.00;;
13102;SDS011;52970;46.752;17.108;2022-10-17T07:38:48;15.52;;;13.88;;
13102;SDS011;52970;46.752;17.108;2022-10-17T07:41:13;14.35;;;12.77;;
13102;SDS011;52970;46.752;17.108;2022-10-17T07:43:38;14.98;;;12.88;;
13102;SDS011;52970;46.752;17.108;2022-10-17T07:46:05;13.93;;;12.10;;
13102;SDS011;52970;46.752;17.108;2022-10-17T07:48:32;13.82;;;12.15;;
13102;SDS011;52970;46.752;17.108;2022-10-17T07:51:00;15.38;;;13.00;;
13102;SDS011;52970;46.752;17.108;2022-10-17T07:53:25;12.75;;;11.40;;
13102;SDS011;52970;46.752;17.108;2022-10-17T07:55:50;15.25;;;12.13;;
13102;SDS011;52970;46.752;17.108;2022-10-17T07:58:16;14.32;;;12.02;;
13102;SDS011;52970;46.752;17.108;2022-10-17T08:00:41;13.43;;;11.82;;
13102;SDS011;52970;46.752;17.108;2022-10-17T08:03:06;16.45;;;11.85;;
13102;SDS011;52970;46.752;17.108;2022-10-17T08:05:32;14.75;;;12.20;;
13102;SDS011;52970;46.752;17.108;2022-10-17T08:07:57;13.38;;;11.95;;
13102;SDS011;52970;46.752;17.108;2022-10-17T08:10:22;14.68;;;11.93;;
13102;SDS011;52970;46.752;17.108;2022-10-17T08:12:53;13.77;;;12.18;;
13102;SDS011;52970;46.752;17.108;2022-10-17T08:15:19;14.55;;;11.40;;
13102;SDS011;52970;46.752;17.108;2022-10-17T08:17:44;14.25;;;11.60;;
13102;SDS011;52970;46.752;17.108;2022-10-17T08:20:09;14.98;;;12.02;;
13102;SDS011;52970;46.752;17.108;2022-10-17T08:22:35;17.05;;;12.05;;
13102;SDS011;52970;46.752;17.108;2022-10-17T08:25:00;13.20;;;11.80;;
13102;SDS011;52970;46.752;17.108;2022-10-17T08:27:25;14.45;;;11.32;;
13102;SDS011;52970;46.752;17.108;2022-10-17T08:29:53;13.32;;;11.20;;
13102;SDS011;52970;46.752;17.108;2022-10-17T08:32:19;13.82;;;11.02;;
13102;SDS011;52970;46.752;17.108;2022-10-17T08:34:44;16.95;;;11.50;;
13102;SDS011;52970;46.752;17.108;2022-10-17T08:37:09;13.60;;;10.65;;
13102;SDS011;52970;46.752;17.108;2022-10-17T08:39:34;17.65;;;11.85;;
13102;SDS011;52970;46.752;17.108;2022-10-17T08:47:48;15.30;;;11.75;;
13102;SDS011;52970;46.752;17.108;2022-10-17T08:52:48;12.55;;;11.35;;
13102;SDS011;52970;46.752;17.108;2022-10-17T08:55:37;13.75;;;11.95;;
13102;SDS011;52970;46.752;17.108;2022-10-17T08:58:00;16.23;;;11.43;;
13102;SDS011;52970;46.752;17.108;2022-10-17T09:00:25;14.50;;;11.40;;
13102;SDS011;52970;46.752;17.108;2022-10-17T09:05:38;14.55;;;10.70;;
13102;SDS011;52970;46.752;17.108;2022-10-17T09:08:13;12.85;;;10.60;;
13102;SDS011;52970;46.752;17.108;2022-10-17T09:15:41;13.00;;;11.10;;
13102;SDS011;52970;46.752;17.108;2022-10-17T09:20:38;12.48;;;11.15;;
13102;SDS011;52970;46.752;17.108;2022-10-17T09:23:07;15.30;;;11.52;;
13102;SDS011;52970;46.752;17.108;2022-10-17T09:25:39;14.98;;;10.63;;
13102;SDS011;52970;46.752;17.108;2022-10-17T09:30:35;14.85;;;10.90;;
13102;SDS011;52970;46.752;17.108;2022-10-17T09:33:37;12.23;;;10.85;;
13102;SDS011;52970;46.752;17.108;2022-10-17T09:35:55;12.40;;;11.10;;
13102;SDS011;52970;46.752;17.108;2022-10-17T09:38:21;13.40;;;11.10;;
13102;SDS011;52970;46.752;17.108;2022-10-17T09:40:49;13.88;;;10.80;;
13102;SDS011;52970;46.752;17.108;2022-10-17T09:43:15;14.35;;;10.85;;
13102;SDS011;52970;46.752;17.108;2022-10-17T09:48:32;14.70;;;11.27;;
13102;SDS011;52970;46.752;17.108;2022-10-17T09:50:59;13.43;;;11.15;;
13102;SDS011;52970;46.752;17.108;2022-10-17T09:53:33;13.90;;;11.50;;
13102;SDS011;52970;46.752;17.108;2022-10-17T09:56:00;14.57;;;11.13;;
13102;SDS011;52970;46.752;17.108;2022-10-17T09:58:45;15.15;;;11.43;;
13102;SDS011;52970;46.752;17.108;2022-10-17T10:01:14;12.75;;;10.48;;
13102;SDS011;52970;46.752;17.108;2022-10-17T10:03:40;13.55;;;10.40;;
13102;SDS011;52970;46.752;17.108;2022-10-17T10:06:11;16.17;;;11.20;;
13102;SDS011;52970;46.752;17.108;2022-10-17T10:08:56;11.88;;;10.68;;
13102;SDS011;52970;46.752;17.108;2022-10-17T10:14:11;12.15;;;10.55;;
13102;SDS011;52970;46.752;17.108;2022-10-17T10:16:40;12.00;;;10.50;;
13102;SDS011;52970;46.752;17.108;2022-10-17T10:19:05;14.18;;;9.57;;
13102;SDS011;52970;46.752;17.108;2022-10-17T10:21:53;14.48;;;10.95;;
13102;SDS011;52970;46.752;17.108;2022-10-17T10:24:19;11.77;;;10.43;;
13102;SDS011;52970;46.752;17.108;2022-10-17T10:29:23;13.50;;;9.93;;
13102;SDS011;52970;46.752;17.108;2022-10-17T10:31:50;13.43;;;10.13;;
13102;SDS011;52970;46.752;17.108;2022-10-17T10:34:26;12.88;;;9.85;;
13102;SDS011;52970;46.752;17.108;2022-10-17T10:36:55;15.05;;;10.93;;
13102;SDS011;52970;46.752;17.108;2022-10-17T10:39:26;11.23;;;9.40;;
13102;SDS011;52970;46.752;17.108;2022-10-17T10:41:52;10.98;;;9.80;;
13102;SDS011;52970;46.752;17.108;2022-10-17T10:44:17;12.32;;;9.27;;
13102;SDS011;52970;46.752;17.108;2022-10-17T10:46:45;12.20;;;9.77;;
13102;SDS011;52970;46.752;17.108;2022-10-17T10:49:28;12.88;;;9.35;;
13102;SDS011;52970;46.752;17.108;2022-10-17T10:51:53;10.23;;;9.15;;
13102;SDS011;52970;46.752;17.108;2022-10-17T10:54:30;11.00;;;9.40;;
13102;SDS011;52970;46.752;17.108;2022-10-17T10:56:58;10.75;;;9.55;;
13102;SDS011;52970;46.752;17.108;2022-10-17T11:01:57;10.05;;;9.05;;
13102;SDS011;52970;46.752;17.108;2022-10-17T11:04:33;12.13;;;8.82;;
13102;SDS011;52970;46.752;17.108;2022-10-17T11:09:33;10.57;;;8.73;;
13102;SDS011;52970;46.752;17.108;2022-10-17T11:12:44;10.38;;;8.88;;
13102;SDS011;52970;46.752;17.108;2022-10-17T11:17:35;9.38;;;8.18;;
13102;SDS011;52970;46.752;17.108;2022-10-17T11:22:48;10.25;;;8.27;;
13102;SDS011;52970;46.752;17.108;2022-10-17T11:25:16;10.18;;;8.93;;
13102;SDS011;52970;46.752;17.108;2022-10-17T11:27:45;11.43;;;9.07;;
13102;SDS011;52970;46.752;17.108;2022-10-17T11:30:13;12.63;;;9.23;;
13102;SDS011;52970;46.752;17.108;2022-10-17T11:35:41;9.98;;;8.98;;
13102;SDS011;52970;46.752;17.108;2022-10-17T11:38:35;9.70;;;8.43;;
13102;SDS011;52970;46.752;17.108;2022-10-17T11:40:51;11.50;;;8.90;;
13102;SDS011;52970;46.752;17.108;2022-10-17T11:43:24;12.40;;;9.35;;
13102;SDS011;52970;46.752;17.108;2022-10-17T11:45:53;10.35;;;8.43;;
13102;SDS011;52970;46.752;17.108;2022-10-17T11:48:21;8.90;;;8.07;;
13102;SDS011;52970;46.752;17.108;2022-10-17T11:50:49;10.10;;;8.13;;
13102;SDS011;52970;46.752;17.108;2022-10-17T11:53:19;8.88;;;7.97;;
13102;SDS011;52970;46.752;17.108;2022-10-17T11:55:45;9.10;;;8.20;;
13102;SDS011;52970;46.752;17.108;2022-10-17T11:58:28;9.75;;;8.15;;
13102;SDS011;52970;46.752;17.108;2022-10-17T12:04:15;9.48;;;8.38;;
13102;SDS011;52970;46.752;17.108;2022-10-17T12:11:57;9.87;;;8.87;;
13102;SDS011;52970;46.752;17.108;2022-10-17T12:17:00;12.30;;;9.23;;
13102;SDS011;52970;46.752;17.108;2022-10-17T12:19:26;9.73;;;8.73;;
13102;SDS011;52970;46.752;17.108;2022-10-17T12:27:26;9.75;;;8.35;;
13102;SDS011;52970;46.752;17.108;2022-10-17T12:30:14;10.05;;;8.43;;
13102;SDS011;52970;46.752;17.108;2022-10-17T12:35:19;10.10;;;7.82;;
13102;SDS011;52970;46.752;17.108;2022-10-17T12:37:58;9.23;;;8.15;;
13102;SDS011;52970;46.752;17.108;2022-10-17T12:43:02;8.80;;;7.88;;
13102;SDS011;52970;46.752;17.108;2022-10-17T12:53:37;10.68;;;8.50;;
13102;SDS011;52970;46.752;17.108;2022-10-17T12:56:05;10.13;;;7.97;;
13102;SDS011;52970;46.752;17.108;2022-10-17T12:58:31;8.90;;;8.00;;
13102;SDS011;52970;46.752;17.108;2022-10-17T13:00:57;8.15;;;7.25;;
13102;SDS011;52970;46.752;17.108;2022-10-17T13:03:42;8.50;;;7.18;;
13102;SDS011;52970;46.752;17.108;2022-10-17T13:06:11;8.60;;;7.55;;
13102;SDS011;52970;46.752;17.108;2022-10-17T13:08:42;9.50;;;8.02;;
13102;SDS011;52970;46.752;17.108;2022-10-17T13:11:08;8.93;;;8.13;;
13102;SDS011;52970;46.752;17.108;2022-10-17T13:13:37;9.52;;;8.02;;
13102;SDS011;52970;46.752;17.108;2022-10-17T13:16:05;9.02;;;8.02;;
13102;SDS011;52970;46.752;17.108;2022-10-17T13:18:31;10.13;;;7.85;;
13102;SDS011;52970;46.752;17.108;2022-10-17T13:21:01;9.10;;;7.35;;
13102;SDS011;52970;46.752;17.108;2022-10-17T13:23:33;8.63;;;7.75;;
13102;SDS011;52970;46.752;17.108;2022-10-17T13:26:12;8.68;;;7.28;;
13102;SDS011;52970;46.752;17.108;2022-10-17T13:28:39;9.90;;;7.65;;
13102;SDS011;52970;46.752;17.108;2022-10-17T13:31:05;8.77;;;7.80;;
13102;SDS011;52970;46.752;17.108;2022-10-17T13:33:32;12.90;;;7.97;;
13102;SDS011;52970;46.752;17.108;2022-10-17T13:35:58;8.30;;;7.47;;
13102;SDS011;52970;46.752;17.108;2022-10-17T13:38:29;9.55;;;8.07;;
13102;SDS011;52970;46.752;17.108;2022-10-17T13:40:56;9.38;;;7.57;;
13102;SDS011;52970;46.752;17.108;2022-10-17T13:43:21;8.90;;;7.95;;
13102;SDS011;52970;46.752;17.108;2022-10-17T13:45:50;9.65;;;7.88;;
13102;SDS011;52970;46.752;17.108;2022-10-17T13:48:20;8.68;;;7.78;;
13102;SDS011;52970;46.752;17.108;2022-10-17T13:50:46;11.77;;;7.30;;
13102;SDS011;52970;46.752;17.108;2022-10-17T13:56:04;9.05;;;7.63;;
13102;SDS011;52970;46.752;17.108;2022-10-17T13:58:40;10.02;;;7.93;;
13102;SDS011;52970;46.752;17.108;2022-10-17T14:01:06;11.25;;;8.10;;
13102;SDS011;52970;46.752;17.108;2022-10-17T14:03:31;10.90;;;7.90;;
13102;SDS011;52970;46.752;17.108;2022-10-17T14:08:34;7.63;;;6.82;;
13102;SDS011;52970;46.752;17.108;2022-10-17T14:11:00;9.23;;;6.97;;
13102;SDS011;52970;46.752;17.108;2022-10-17T14:13:26;12.57;;;7.47;;
13102;SDS011;52970;46.752;17.108;2022-10-17T14:15:53;8.50;;;7.57;;
13102;SDS011;52970;46.752;17.108;2022-10-17T14:18:39;8.65;;;6.82;;
13102;SDS011;52970;46.752;17.108;2022-10-17T14:21:05;10.07;;;7.07;;
13102;SDS011;52970;46.752;17.108;2022-10-17T14:23:35;8.70;;;7.38;;
13102;SDS011;52970;46.752;17.108;2022-10-17T14:28:35;8.88;;;7.50;;
13102;SDS011;52970;46.752;17.108;2022-10-17T14:31:21;7.97;;;7.18;;
13102;SDS011;52970;46.752;17.108;2022-10-17T14:33:48;8.23;;;7.40;;
13102;SDS011;52970;46.752;17.108;2022-10-17T14:36:14;9.63;;;6.80;;
13102;SDS011;52970;46.752;17.108;2022-10-17T14:38:43;9.95;;;7.50;;
13102;SDS011;52970;46.752;17.108;2022-10-17T14:41:26;8.30;;;7.32;;
13102;SDS011;52970;46.752;17.108;2022-10-17T14:43:56;9.82;;;7.40;;
13102;SDS011;52970;46.752;17.108;2022-10-17T14:46:22;11.10;;;7.65;;
13102;SDS011;52970;46.752;17.108;2022-10-17T14:48:50;9.98;;;7.82;;
13102;SDS011;52970;46.752;17.108;2022-10-17T14:51:16;8.73;;;7.45;;
13102;SDS011;52970;46.752;17.108;2022-10-17T14:56:27;9.65;;;7.63;;
13102;SDS011;52970;46.752;17.108;2022-10-17T14:58:57;9.10;;;7.85;;
13102;SDS011;52970;46.752;17.108;2022-10-17T15:01:23;9.65;;;7.38;;
13102;SDS011;52970;46.752;17.108;2022-10-17T15:03:48;9.93;;;7.57;;
13102;SDS011;52970;46.752;17.108;2022-10-17T15:06:20;7.80;;;7.10;;
13102;SDS011;52970;46.752;17.108;2022-10-17T15:08:46;9.23;;;7.30;;
13102;SDS011;52970;46.752;17.108;2022-10-17T15:11:12;8.60;;;7.50;;
13102;SDS011;52970;46.752;17.108;2022-10-17T15:13:37;10.80;;;8.32;;
13102;SDS011;52970;46.752;17.108;2022-10-17T15:16:05;8.90;;;8.00;;
13102;SDS011;52970;46.752;17.108;2022-10-17T15:18:30;10.88;;;7.65;;
13102;SDS011;52970;46.752;17.108;2022-10-17T15:20:56;9.40;;;7.35;;
13102;SDS011;52970;46.752;17.108;2022-10-17T15:23:21;9.17;;;7.30;;
13102;SDS011;52970;46.752;17.108;2022-10-17T15:25:46;8.23;;;7.33;;
13102;SDS011;52970;46.752;17.108;2022-10-17T15:28:12;9.13;;;7.40;;
13102;SDS011;52970;46.752;17.108;2022-10-17T15:30:37;8.80;;;7.18;;
13102;SDS011;52970;46.752;17.108;2022-10-17T15:33:02;7.95;;;6.88;;
13102;SDS011;52970;46.752;17.108;2022-10-17T15:35:27;8.20;;;7.47;;
13102;SDS011;52970;46.752;17.108;2022-10-17T15:37:53;8.55;;;7.72;;
13102;SDS011;52970;46.752;17.108;2022-10-17T15:40:21;9.20;;;7.57;;
13102;SDS011;52970;46.752;17.108;2022-10-17T15:42:47;8.00;;;7.22;;
13102;SDS011;52970;46.752;17.108;2022-10-17T15:45:13;10.32;;;7.60;;
13102;SDS011;52970;46.752;17.108;2022-10-17T15:47:42;8.65;;;7.75;;
13102;SDS011;52970;46.752;17.108;2022-10-17T15:50:14;9.00;;;6.95;;
13102;SDS011;52970;46.752;17.108;2022-10-17T15:52:40;11.90;;;7.38;;
13102;SDS011;52970;46.752;17.108;2022-10-17T15:55:05;8.00;;;7.20;;
13102;SDS011;52970;46.752;17.108;2022-10-17T15:57:34;8.50;;;7.00;;
13102;SDS011;52970;46.752;17.108;2022-10-17T16:00:00;8.70;;;7.28;;
13102;SDS011;52970;46.752;17.108;2022-10-17T16:02:25;8.45;;;7.22;;
13102;SDS011;52970;46.752;17.108;2022-10-17T16:04:51;9.15;;;7.03;;
13102;SDS011;52970;46.752;17.108;2022-10-17T16:07:16;9.80;;;7.55;;
13102;SDS011;52970;46.752;17.108;2022-10-17T16:09:42;8.27;;;7.40;;
13102;SDS011;52970;46.752;17.108;2022-10-17T16:12:12;10.00;;;8.32;;
13102;SDS011;52970;46.752;17.108;2022-10-17T16:14:38;8.32;;;7.40;;
13102;SDS011;52970;46.752;17.108;2022-10-17T16:17:04;8.90;;;7.25;;